Flugplatz Rudolstadt-Groschwitz (EDOK)

Hier findest Du alle Informationen zum Flugplatz Rudolstadt-Groschwitz (EDOK).

Informationen für Piloten zum Flugplatz Rudolstadt-Groschwitz

Hier findest Du alle relevanten Informationen, die Du als Pilot benötigst, um Rudolstadt-Groschwitz anzufliegen.

Flugplatz: Rudolstadt-Groschwitz ICAO-Code: EDOK
Frequenz Turm: 122,600 Mhz GAFOR Gebiet: 27
Frequenz Ground: 122,600 Mhz Mogas: nein
Platzrunde: SE 2400 ft Landegebühr: -
Platzhöhe: 1.535 ft Sunrise: 03:30 Uhr UTC
Pisten: 07/25 - 800 m x 30 m, GRAS Sunset: 19:12 Uhr UTC

Mitglieder, die in Rudolstadt-Groschwitz fliegen

Flugwetter am Flugplatz Rudolstadt-Groschwitz

Die METAR Information stammen aus EDDE (33.87 km entfernt).

METAR Code:
2024/07/11 13:50
EDDE 111350Z AUTO 26006KT 230V290 CAVOK 25/14 Q1017 NOSIG

Flugschulen am Flugplatz Rudolstadt-Groschwitz

Am Flugplatz Rudolstadt-Groschwitz gibt es leider keine Flugschule.

Benachbarte Flugplätze und Flugschulen

Es gibt 9 weitere Flugplätze in einem Umkreis von 50 km um den Flugplatz Rudolstadt-Groschwitz.

Jetzt anmelden

Passwort vergessen

Umfrage Archiv

Wie häufig haltet Ihr die Halbkreisflugregel ein?

Eher häufig!
36.6 %
Immer!
30.5 %
Hin und wieder!
16.8 %
Nie!
9.3 %
Eher selten!
6.8 %
Stimmen: 279 | Diskussion
Anzeige: Roland Aircraft
Statistik Alle Mitglieder

Aktuell sind 25 Besucher online, davon 1 Mitglied und 24 Gäste.


Mitglieder online:
raller 

Anzeige: EasyVFR